Time;durP1;ratioP1;P1;durP2;ratioP2;P2;SDS_P1;SDS_P2;PMS_P1;PMS_P2;Temp;Humidity;BMP_temperature;BMP_pressure;BME280_temperature;BME280_humidity;BME280_pressure;Samples;Min_cycle;Max_cycle;Signal;HPM_P1;HPM_P2
2023/07/14 00:00:24;;;;;;;0.10;0.10;;;;;;;;;;5121135;28;20175;-52
2023/07/14 00:02:50;;;;;;;0.10;0.10;;;;;;;;;;5107451;28;20048;-52
2023/07/14 00:05:17;;;;;;;0.10;0.10;;;;;;;;;;5124467;27;20055;-52
2023/07/14 00:07:44;;;;;;;0.10;0.10;;;;;;;;;;5126869;27;20058;-53
2023/07/14 00:10:14;;;;;;;0.10;0.10;;;;;;;;;;5120601;28;20310;-52
2023/07/14 00:12:39;;;;;;;0.10;0.10;;;;;;;;;;5107158;28;20056;-51
2023/07/14 00:15:05;;;;;;;0.10;0.10;;;;;;;;;;5114911;28;20050;-52
2023/07/14 00:17:30;;;;;;;0.10;0.10;;;;;;;;;;5126844;28;20050;-51
2023/07/14 00:19:56;;;;;;;0.10;0.10;;;;;;;;;;5124884;28;20086;-53
2023/07/14 00:22:22;;;;;;;0.10;0.10;;;;;;;;;;5107080;28;20051;-51
2023/07/14 00:24:47;;;;;;;0.10;0.10;;;;;;;;;;5110103;28;20488;-53
2023/07/14 00:27:18;;;;;;;0.10;0.10;;;;;;;;;;5121275;28;20043;-52
2023/07/14 00:29:45;;;;;;;0.10;0.10;;;;;;;;;;5130312;28;20435;-48
2023/07/14 00:32:12;;;;;;;0.10;0.10;;;;;;;;;;5130477;28;20047;-51
2023/07/14 00:34:38;;;;;;;0.10;0.10;;;;;;;;;;5130201;28;20055;-52
2023/07/14 00:37:03;;;;;;;0.10;0.10;;;;;;;;;;5129619;28;20426;-53
2023/07/14 00:39:29;;;;;;;0.10;0.10;;;;;;;;;;5130050;28;20104;-51
2023/07/14 00:41:54;;;;;;;0.10;0.10;;;;;;;;;;5116511;28;20498;-51
2023/07/14 00:44:20;;;;;;;0.10;0.10;;;;;;;;;;5129597;28;20074;-53
2023/07/14 00:46:46;;;;;;;0.10;0.10;;;;;;;;;;5129977;27;20079;-52
2023/07/14 00:49:17;;;;;;;0.10;0.10;;;;;;;;;;5130640;27;20055;-51
2023/07/14 00:51:43;;;;;;;0.10;0.10;;;;;;;;;;5112217;27;20075;-51
2023/07/14 00:54:28;;;;;;;0.10;0.10;;;;;;;;;;5109747;28;20137;-53
2023/07/14 00:56:55;;;;;;;0.10;0.10;;;;;;;;;;5094253;28;20047;-51
2023/07/14 00:59:21;;;;;;;0.10;0.10;;;;;;;;;;5113674;28;20070;-52
2023/07/14 01:02:07;;;;;;;0.10;0.10;;;;;;;;;;5129929;28;20082;-52
2023/07/14 01:04:32;;;;;;;0.10;0.10;;;;;;;;;;5109218;27;20321;-51
2023/07/14 01:06:58;;;;;;;0.10;0.10;;;;;;;;;;5150289;27;20102;-52
2023/07/14 01:09:24;;;;;;;0.10;0.10;;;;;;;;;;5150802;27;20169;-53
2023/07/14 01:11:51;;;;;;;0.10;0.10;;;;;;;;;;5131123;27;20142;-53
2023/07/14 01:14:20;;;;;;;0.10;0.10;;;;;;;;;;5129734;28;20043;-52
2023/07/14 01:16:47;;;;;;;0.20;0.20;;;;;;;;;;5129478;28;20092;-52
2023/07/14 01:19:21;;;;;;;0.10;0.10;;;;;;;;;;5129882;28;20051;-52
2023/07/14 01:21:48;;;;;;;0.10;0.10;;;;;;;;;;5130180;28;20054;-52
2023/07/14 01:24:18;;;;;;;0.10;0.10;;;;;;;;;;5129761;28;20054;-52
2023/07/14 01:27:04;;;;;;;0.10;0.10;;;;;;;;;;5130285;28;20058;-51
2023/07/14 01:29:31;;;;;;;0.10;0.10;;;;;;;;;;5116987;28;20058;-52
2023/07/14 01:31:57;;;;;;;0.10;0.10;;;;;;;;;;5109957;27;20079;-52
2023/07/14 01:34:23;;;;;;;0.10;0.10;;;;;;;;;;5109451;28;20516;-52
2023/07/14 01:36:49;;;;;;;0.10;0.10;;;;;;;;;;5110558;28;20283;-52
2023/07/14 01:39:15;;;;;;;0.10;0.10;;;;;;;;;;5129726;27;20201;-52
2023/07/14 01:41:41;;;;;;;0.10;0.10;;;;;;;;;;5129064;28;20074;-51
2023/07/14 01:44:12;;;;;;;0.10;0.10;;;;;;;;;;5129100;28;20055;-52
2023/07/14 01:46:38;;;;;;;0.10;0.10;;;;;;;;;;5129093;28;20070;-52
2023/07/14 01:49:09;;;;;;;0.10;0.10;;;;;;;;;;5129547;28;20134;-52
2023/07/14 01:51:38;;;;;;;0.10;0.10;;;;;;;;;;5129481;28;20415;-52
2023/07/14 01:54:25;;;;;;;0.10;0.10;;;;;;;;;;5129873;28;20047;-52
2023/07/14 01:56:52;;;;;;;0.10;0.10;;;;;;;;;;5113997;28;20066;-52
2023/07/14 01:59:22;;;;;;;0.10;0.10;;;;;;;;;;5129294;28;20051;-51
2023/07/14 02:01:49;;;;;;;0.17;0.17;;;;;;;;;;5128128;27;20047;-52
2023/07/14 02:04:17;;;;;;;0.10;0.10;;;;;;;;;;5121824;27;20043;-53
2023/07/14 02:06:43;;;;;;;0.10;0.10;;;;;;;;;;5108386;28;20047;-52
2023/07/14 02:09:14;;;;;;;0.10;0.10;;;;;;;;;;5108460;28;20055;-52
2023/07/14 02:11:40;;;;;;;0.10;0.10;;;;;;;;;;5125662;28;20077;-52
2023/07/14 02:14:10;;;;;;;0.17;0.17;;;;;;;;;;5129190;28;20066;-53
2023/07/14 02:16:36;;;;;;;0.10;0.10;;;;;;;;;;5128302;28;20079;-51
2023/07/14 02:19:01;;;;;;;0.10;0.10;;;;;;;;;;5128999;28;20051;-51
2023/07/14 02:21:29;;;;;;;0.10;0.10;;;;;;;;;;5125833;28;20047;-52
2023/07/14 02:23:55;;;;;;;0.10;0.10;;;;;;;;;;5128389;28;20054;-52
2023/07/14 02:26:25;;;;;;;0.10;0.10;;;;;;;;;;5129024;28;20050;-52
2023/07/14 02:28:50;;;;;;;0.10;0.10;;;;;;;;;;5129337;28;20190;-53
2023/07/14 02:31:20;;;;;;;0.10;0.10;;;;;;;;;;5128229;28;20419;-53
2023/07/14 02:33:47;;;;;;;0.10;0.10;;;;;;;;;;5128953;28;20067;-53
2023/07/14 02:38:48;;;;;;;0.10;0.10;;;;;;;;;;5186468;27;20486;-50
2023/07/14 02:41:16;;;;;;;0.10;0.10;;;;;;;;;;5179448;27;20058;-50
2023/07/14 02:43:42;;;;;;;;;;;;;;;;;;5187588;27;20722;-48
2023/07/14 02:46:13;;;;;;;0.10;0.10;;;;;;;;;;5174299;27;20386;-50
2023/07/14 02:48:42;;;;;;;0.10;0.10;;;;;;;;;;5166593;27;20082;-50
2023/07/14 02:51:08;;;;;;;0.10;0.10;;;;;;;;;;5179444;27;20054;-49
2023/07/14 02:53:34;;;;;;;0.10;0.10;;;;;;;;;;5187908;27;20546;-50
2023/07/14 02:56:00;;;;;;;0.10;0.10;;;;;;;;;;5187222;27;20041;-50
2023/07/14 02:58:25;;;;;;;0.10;0.10;;;;;;;;;;5187017;27;20050;-50
2023/07/14 03:00:51;;;;;;;0.10;0.10;;;;;;;;;;5180756;27;20046;-50
2023/07/14 03:03:17;;;;;;;0.10;0.10;;;;;;;;;;5158541;27;20380;-49
2023/07/14 03:05:43;;;;;;;0.10;0.10;;;;;;;;;;5143604;27;20084;-49
2023/07/14 03:08:14;;;;;;;0.10;0.10;;;;;;;;;;5145221;27;20039;-49
2023/07/14 03:10:41;;;;;;;0.10;0.10;;;;;;;;;;5153776;27;20055;-48
2023/07/14 03:13:07;;;;;;;0.10;0.10;;;;;;;;;;5165815;27;20061;-50
2023/07/14 03:15:33;;;;;;;0.10;0.10;;;;;;;;;;5165375;27;20042;-50
2023/07/14 03:18:00;;;;;;;0.10;0.10;;;;;;;;;;5165451;27;20050;-50
2023/07/14 03:20:25;;;;;;;0.10;0.10;;;;;;;;;;5165357;27;20106;-50
2023/07/14 03:22:51;;;;;;;0.10;0.10;;;;;;;;;;5148151;27;20495;-50
2023/07/14 03:25:16;;;;;;;0.10;0.10;;;;;;;;;;5145078;27;20043;-50
2023/07/14 03:27:44;;;;;;;0.10;0.10;;;;;;;;;;5145095;27;20051;-50
2023/07/14 03:30:09;;;;;;;0.10;0.10;;;;;;;;;;5149331;27;20047;-50
2023/07/14 03:32:35;;;;;;;0.10;0.10;;;;;;;;;;5153609;27;20039;-50
2023/07/14 03:35:01;;;;;;;0.10;0.10;;;;;;;;;;5144992;27;20368;-49
2023/07/14 03:37:26;;;;;;;0.10;0.10;;;;;;;;;;5144858;27;20057;-50
2023/07/14 03:39:52;;;;;;;0.10;0.10;;;;;;;;;;5146172;27;20054;-48
2023/07/14 03:42:17;;;;;;;0.10;0.10;;;;;;;;;;5147378;27;20047;-50
2023/07/14 03:44:43;;;;;;;0.20;0.20;;;;;;;;;;5144460;27;20100;-50
2023/07/14 03:47:08;;;;;;;0.10;0.10;;;;;;;;;;5144147;27;20050;-50
2023/07/14 03:49:34;;;;;;;0.10;0.10;;;;;;;;;;5134532;27;20043;-50
2023/07/14 03:52:00;;;;;;;0.10;0.10;;;;;;;;;;5150962;27;20099;-49
2023/07/14 03:54:25;;;;;;;0.10;0.10;;;;;;;;;;5151444;27;20039;-50
2023/07/14 03:56:52;;;;;;;0.10;0.10;;;;;;;;;;5151398;27;20240;-50
2023/07/14 03:59:17;;;;;;;0.10;0.10;;;;;;;;;;5151865;27;20051;-50
2023/07/14 04:01:43;;;;;;;0.10;0.10;;;;;;;;;;5151216;27;20377;-50
2023/07/14 04:04:09;;;;;;;0.10;0.10;;;;;;;;;;5139843;27;20046;-48
2023/07/14 04:06:34;;;;;;;0.10;0.10;;;;;;;;;;5130531;27;20051;-50
2023/07/14 04:09:00;;;;;;;0.10;0.10;;;;;;;;;;5130721;28;20100;-49
2023/07/14 04:11:26;;;;;;;0.10;0.10;;;;;;;;;;5145552;27;20066;-50
2023/07/14 04:13:51;;;;;;;0.10;0.10;;;;;;;;;;5151363;27;20051;-48
2023/07/14 04:16:18;;;;;;;0.10;0.10;;;;;;;;;;5150784;27;20050;-50
2023/07/14 04:18:44;;;;;;;0.10;0.10;;;;;;;;;;5151344;27;20153;-50
2023/07/14 04:21:11;;;;;;;0.10;0.10;;;;;;;;;;5150792;27;20423;-50
2023/07/14 04:23:37;;;;;;;0.10;0.10;;;;;;;;;;5142021;27;20385;-50
2023/07/14 04:26:03;;;;;;;0.10;0.10;;;;;;;;;;5130244;28;20122;-50
2023/07/14 04:28:28;;;;;;;0.10;0.10;;;;;;;;;;5129980;28;20393;-52
2023/07/14 04:30:55;;;;;;;0.15;0.15;;;;;;;;;;5141261;27;20083;-53
2023/07/14 04:33:21;;;;;;;0.10;0.10;;;;;;;;;;5148414;27;20303;-52
2023/07/14 04:35:49;;;;;;;0.10;0.10;;;;;;;;;;5129942;28;20051;-52
2023/07/14 04:38:15;;;;;;;0.10;0.10;;;;;;;;;;5129900;28;20043;-52
2023/07/14 04:40:41;;;;;;;0.10;0.10;;;;;;;;;;5138582;27;20043;-53
2023/07/14 04:43:06;;;;;;;0.10;0.10;;;;;;;;;;5140767;27;20100;-52
2023/07/14 04:45:40;;;;;;;0.10;0.10;;;;;;;;;;5129579;28;20051;-53
2023/07/14 04:48:06;;;;;;;0.10;0.10;;;;;;;;;;5130021;28;20092;-52
2023/07/14 04:50:33;;;;;;;0.10;0.10;;;;;;;;;;5137050;27;20167;-52
2023/07/14 04:52:58;;;;;;;0.10;0.10;;;;;;;;;;5150696;27;20046;-52
2023/07/14 04:55:25;;;;;;;0.10;0.10;;;;;;;;;;5150297;27;20053;-52
2023/07/14 04:57:51;;;;;;;0.10;0.10;;;;;;;;;;5150597;27;20070;-53
2023/07/14 05:00:18;;;;;;;0.10;0.10;;;;;;;;;;5149638;27;20074;-52
2023/07/14 05:02:43;;;;;;;0.10;0.10;;;;;;;;;;5136771;27;20609;-52
2023/07/14 05:05:11;;;;;;;0.10;0.10;;;;;;;;;;5138190;27;20050;-51
2023/07/14 05:07:36;;;;;;;0.10;0.10;;;;;;;;;;5136481;27;20051;-52
2023/07/14 05:10:02;;;;;;;0.10;0.10;;;;;;;;;;5132277;27;20078;-51
2023/07/14 05:12:28;;;;;;;0.10;0.10;;;;;;;;;;5150313;27;20054;-51
2023/07/14 05:14:53;;;;;;;0.10;0.10;;;;;;;;;;5150399;27;20043;-52
2023/07/14 05:17:19;;;;;;;0.10;0.10;;;;;;;;;;5149791;27;20368;-51
2023/07/14 05:19:44;;;;;;;0.10;0.10;;;;;;;;;;5150240;27;20074;-52
2023/07/14 05:22:10;;;;;;;0.10;0.10;;;;;;;;;;5150292;27;20043;-51
2023/07/14 05:24:35;;;;;;;0.10;0.10;;;;;;;;;;5131257;27;20112;-52
2023/07/14 05:27:01;;;;;;;0.10;0.10;;;;;;;;;;5129272;28;20043;-53
2023/07/14 05:29:26;;;;;;;0.10;0.10;;;;;;;;;;5129271;28;20077;-51
2023/07/14 05:31:52;;;;;;;0.10;0.10;;;;;;;;;;5148309;27;20398;-52
2023/07/14 05:34:17;;;;;;;0.10;0.10;;;;;;;;;;5149929;27;20046;-53
2023/07/14 05:36:43;;;;;;;0.10;0.10;;;;;;;;;;5133265;27;20043;-52
2023/07/14 05:39:09;;;;;;;0.10;0.10;;;;;;;;;;5129009;28;20060;-51
2023/07/14 05:41:34;;;;;;;0.10;0.10;;;;;;;;;;5144839;27;20043;-53
2023/07/14 05:44:01;;;;;;;0.10;0.10;;;;;;;;;;5147622;27;20042;-51
2023/07/14 05:46:27;;;;;;;0.10;0.10;;;;;;;;;;5128031;28;20074;-52
2023/07/14 05:48:53;;;;;;;0.10;0.10;;;;;;;;;;5128499;28;20047;-52
2023/07/14 05:51:19;;;;;;;0.10;0.10;;;;;;;;;;5132647;27;20082;-50
2023/07/14 05:53:44;;;;;;;0.10;0.10;;;;;;;;;;5128706;28;20054;-52
2023/07/14 05:56:10;;;;;;;0.10;0.10;;;;;;;;;;5128176;28;20449;-52
2023/07/14 05:58:36;;;;;;;0.10;0.10;;;;;;;;;;5128545;28;20133;-53
2023/07/14 06:01:02;;;;;;;0.10;0.10;;;;;;;;;;5140481;27;20046;-51
2023/07/14 06:03:28;;;;;;;0.10;0.10;;;;;;;;;;5140434;27;20050;-58
2023/07/14 06:05:56;;;;;;;0.10;0.10;;;;;;;;;;5149373;27;20054;-52
2023/07/14 06:08:21;;;;;;;0.10;0.10;;;;;;;;;;5127206;27;20047;-52
2023/07/14 06:10:49;;;;;;;0.10;0.10;;;;;;;;;;5137230;27;20090;-52
2023/07/14 06:13:14;;;;;;;0.10;0.10;;;;;;;;;;5148122;27;20047;-52
2023/07/14 06:15:45;;;;;;;0.10;0.10;;;;;;;;;;5148453;27;20055;-49
2023/07/14 06:18:10;;;;;;;0.10;0.10;;;;;;;;;;5149286;27;20089;-52
2023/07/14 06:20:36;;;;;;;0.10;0.10;;;;;;;;;;5149301;27;20053;-52
2023/07/14 06:23:02;;;;;;;0.10;0.10;;;;;;;;;;5149608;27;20054;-52
2023/07/14 06:25:27;;;;;;;0.10;0.10;;;;;;;;;;5149447;27;20387;-52
2023/07/14 06:27:53;;;;;;;0.10;0.10;;;;;;;;;;5135154;27;20544;-52
2023/07/14 06:30:19;;;;;;;0.10;0.10;;;;;;;;;;5134662;27;20053;-51
2023/07/14 06:32:44;;;;;;;0.10;0.10;;;;;;;;;;5149500;27;20047;-52
2023/07/14 06:35:10;;;;;;;0.10;0.10;;;;;;;;;;5149299;27;20524;-52
2023/07/14 06:37:36;;;;;;;0.10;0.10;;;;;;;;;;5140397;27;20415;-52
2023/07/14 06:40:03;;;;;;;0.10;0.10;;;;;;;;;;5131075;27;20112;-52
2023/07/14 06:42:29;;;;;;;0.10;0.10;;;;;;;;;;5149086;27;20054;-52
2023/07/14 06:44:54;;;;;;;0.10;0.10;;;;;;;;;;5148593;27;20297;-53
2023/07/14 06:47:20;;;;;;;0.10;0.10;;;;;;;;;;5132890;27;20071;-52
2023/07/14 06:49:45;;;;;;;0.10;0.10;;;;;;;;;;5128908;27;20051;-52
2023/07/14 06:52:13;;;;;;;0.10;0.10;;;;;;;;;;5146274;27;20110;-52
2023/07/14 06:54:39;;;;;;;0.10;0.10;;;;;;;;;;5127456;28;20411;-51
2023/07/14 06:57:08;;;;;;;0.10;0.10;;;;;;;;;;5127433;28;20464;-52
2023/07/14 06:59:33;;;;;;;0.10;0.10;;;;;;;;;;5127804;28;20146;-52
2023/07/14 07:01:59;;;;;;;0.10;0.10;;;;;;;;;;5134490;27;20053;-52
2023/07/14 07:04:26;;;;;;;0.10;0.10;;;;;;;;;;5144133;27;20047;-51
2023/07/14 07:06:53;;;;;;;0.10;0.10;;;;;;;;;;5146741;27;20433;-50
2023/07/14 07:09:19;;;;;;;0.10;0.10;;;;;;;;;;5127379;28;20104;-52
2023/07/14 07:11:44;;;;;;;0.10;0.10;;;;;;;;;;5127684;27;20588;-52
2023/07/14 07:14:10;;;;;;;0.10;0.10;;;;;;;;;;5127550;28;20063;-52
2023/07/14 07:16:36;;;;;;;0.10;0.10;;;;;;;;;;5127015;28;20043;-52
2023/07/14 07:19:02;;;;;;;0.10;0.10;;;;;;;;;;5127357;28;20054;-52
2023/07/14 07:21:27;;;;;;;0.10;0.10;;;;;;;;;;5142325;27;20043;-53
2023/07/14 07:23:53;;;;;;;0.10;0.10;;;;;;;;;;5148833;27;20050;-52
2023/07/14 07:26:19;;;;;;;0.10;0.10;;;;;;;;;;5151470;27;20047;-53
2023/07/14 07:28:44;;;;;;;0.10;0.10;;;;;;;;;;5144985;27;20062;-51
2023/07/14 07:31:11;;;;;;;0.10;0.10;;;;;;;;;;5143615;27;20581;-52
2023/07/14 07:33:36;;;;;;;0.10;0.10;;;;;;;;;;5151555;27;20407;-51
2023/07/14 07:36:14;;;;;;;0.10;0.10;;;;;;;;;;5151024;27;20512;-51
2023/07/14 07:38:42;;;;;;;0.10;0.10;;;;;;;;;;5149448;27;20406;-52
2023/07/14 07:41:08;;;;;;;0.10;0.10;;;;;;;;;;5143172;27;20051;-52
2023/07/14 07:43:33;;;;;;;0.10;0.10;;;;;;;;;;5151355;27;20188;-53
2023/07/14 07:45:59;;;;;;;0.10;0.10;;;;;;;;;;5151490;27;20372;-52
2023/07/14 07:48:24;;;;;;;0.10;0.10;;;;;;;;;;5140647;27;20055;-52
2023/07/14 07:50:50;;;;;;;0.10;0.10;;;;;;;;;;5141160;27;20483;-52
2023/07/14 07:53:16;;;;;;;0.10;0.10;;;;;;;;;;5151789;27;20046;-52
2023/07/14 07:55:41;;;;;;;0.10;0.10;;;;;;;;;;5133442;27;20138;-52
2023/07/14 07:58:07;;;;;;;0.10;0.10;;;;;;;;;;5130831;28;20058;-53
2023/07/14 08:00:32;;;;;;;0.10;0.10;;;;;;;;;;5136353;27;20095;-53
2023/07/14 08:02:58;;;;;;;0.10;0.10;;;;;;;;;;5131616;27;20130;-50
2023/07/14 08:05:25;;;;;;;0.10;0.10;;;;;;;;;;5130542;28;20047;-52
2023/07/14 08:07:50;;;;;;;0.10;0.10;;;;;;;;;;5130298;28;20062;-53
2023/07/14 08:10:16;;;;;;;0.10;0.10;;;;;;;;;;5130899;27;20043;-52
2023/07/14 08:12:42;;;;;;;0.10;0.10;;;;;;;;;;5130770;28;20051;-51
2023/07/14 08:15:09;;;;;;;0.10;0.10;;;;;;;;;;5130326;28;20047;-51
2023/07/14 08:17:51;;;;;;;0.10;0.10;;;;;;;;;;5129919;28;20058;-52
2023/07/14 08:20:17;;;;;;;0.10;0.10;;;;;;;;;;5135895;27;20051;-51
2023/07/14 08:22:42;;;;;;;0.10;0.10;;;;;;;;;;5151241;27;20111;-53
2023/07/14 08:25:09;;;;;;;0.10;0.10;;;;;;;;;;5150722;27;20078;-51
2023/07/14 08:27:34;;;;;;;0.10;0.10;;;;;;;;;;5147605;27;20058;-52
2023/07/14 08:30:00;;;;;;;0.10;0.10;;;;;;;;;;5129195;27;20055;-51
2023/07/14 08:32:25;;;;;;;0.10;0.10;;;;;;;;;;5129826;28;20410;-52
2023/07/14 08:34:51;;;;;;;0.10;0.10;;;;;;;;;;5130243;27;20051;-51
2023/07/14 08:37:17;;;;;;;0.10;0.10;;;;;;;;;;5129836;28;20103;-52
2023/07/14 08:39:43;;;;;;;0.10;0.10;;;;;;;;;;5130338;27;20051;-51
2023/07/14 08:42:30;;;;;;;0.10;0.10;;;;;;;;;;5134002;27;20081;-53
2023/07/14 08:45:07;;;;;;;0.00;0.00;;;;;;;;;;5129909;28;20090;-52
2023/07/14 08:47:43;;;;;;;0.10;0.10;;;;;;;;;;5129979;28;20051;-52
2023/07/14 08:50:15;;;;;;;0.10;0.10;;;;;;;;;;5130355;27;20119;-53
2023/07/14 08:52:42;;;;;;;0.10;0.10;;;;;;;;;;5130025;28;20051;-52
2023/07/14 08:55:14;;;;;;;0.10;0.10;;;;;;;;;;5129756;28;20047;-53
2023/07/14 08:57:57;;;;;;;0.10;0.10;;;;;;;;;;5128906;28;20403;-52
2023/07/14 09:00:26;;;;;;;0.10;0.10;;;;;;;;;;5134513;27;20038;-51
2023/07/14 09:03:12;;;;;;;0.10;0.10;;;;;;;;;;5141395;27;20057;-52
2023/07/14 09:05:41;;;;;;;0.10;0.10;;;;;;;;;;5134630;27;20046;-52
2023/07/14 09:08:08;;;;;;;0.10;0.10;;;;;;;;;;5132794;27;20107;-53
2023/07/14 09:10:39;;;;;;;0.10;0.10;;;;;;;;;;5137507;27;20054;-52
2023/07/14 09:13:10;;;;;;;0.10;0.10;;;;;;;;;;5150327;27;20039;-52
2023/07/14 09:15:36;;;;;;;0.10;0.10;;;;;;;;;;5149842;27;20046;-52
2023/07/14 09:20:45;;;;;;;0.10;0.10;;;;;;;;;;5187640;27;20513;-50
2023/07/14 09:23:16;;;;;;;0.10;0.10;;;;;;;;;;5166341;27;20426;-50
2023/07/14 09:25:46;;;;;;;0.10;0.10;;;;;;;;;;5166401;27;20048;-50
2023/07/14 09:28:17;;;;;;;0.10;0.10;;;;;;;;;;5166535;27;20061;-50
2023/07/14 09:30:43;;;;;;;0.10;0.10;;;;;;;;;;5165618;27;20382;-50
2023/07/14 09:33:13;;;;;;;0.10;0.10;;;;;;;;;;5165994;27;20081;-50
2023/07/14 09:35:40;;;;;;;0.10;0.10;;;;;;;;;;5166038;27;20177;-50
2023/07/14 09:38:13;;;;;;;0.10;0.10;;;;;;;;;;5166406;27;20078;-50
2023/07/14 09:40:40;;;;;;;0.10;0.10;;;;;;;;;;5165875;27;20046;-50
2023/07/14 09:43:06;;;;;;;0.10;0.10;;;;;;;;;;5165675;27;20050;-49
2023/07/14 09:45:33;;;;;;;0.10;0.10;;;;;;;;;;5165607;27;20046;-50
2023/07/14 09:48:00;;;;;;;0.10;0.10;;;;;;;;;;5165174;27;20395;-48
2023/07/14 09:50:27;;;;;;;0.10;0.10;;;;;;;;;;5165710;27;20049;-50
2023/07/14 09:52:54;;;;;;;0.10;0.10;;;;;;;;;;5165324;27;20478;-50
2023/07/14 09:55:20;;;;;;;0.10;0.10;;;;;;;;;;5165292;27;20038;-49
2023/07/14 09:57:49;;;;;;;0.10;0.10;;;;;;;;;;5165210;27;20047;-50
2023/07/14 10:00:39;;;;;;;0.10;0.10;;;;;;;;;;5146501;27;20158;-50
2023/07/14 10:03:07;;;;;;;0.10;0.10;;;;;;;;;;5166088;27;20054;-50
2023/07/14 10:05:43;;;;;;;0.10;0.10;;;;;;;;;;5165391;27;20183;-50
2023/07/14 10:08:28;;;;;;;0.10;0.10;;;;;;;;;;5164691;27;20049;-50
2023/07/14 10:10:55;;;;;;;0.10;0.10;;;;;;;;;;5149433;27;20049;-50
2023/07/14 10:13:22;;;;;;;0.10;0.10;;;;;;;;;;5165297;27;20513;-50
2023/07/14 10:15:50;;;;;;;0.10;0.10;;;;;;;;;;5164894;27;20490;-49
2023/07/14 10:18:16;;;;;;;0.10;0.10;;;;;;;;;;5165035;27;20474;-49
2023/07/14 10:20:53;;;;;;;0.10;0.10;;;;;;;;;;5165146;27;20050;-50
2023/07/14 10:23:20;;;;;;;0.10;0.10;;;;;;;;;;5165167;27;20398;-50
2023/07/14 10:25:49;;;;;;;0.10;0.10;;;;;;;;;;5165018;27;20274;-50
2023/07/14 10:28:18;;;;;;;0.10;0.10;;;;;;;;;;5165112;27;20492;-49
2023/07/14 10:30:47;;;;;;;0.10;0.10;;;;;;;;;;5158797;27;20081;-50
2023/07/14 10:33:19;;;;;;;0.10;0.10;;;;;;;;;;5149766;27;20099;-49
2023/07/14 10:35:45;;;;;;;0.10;0.10;;;;;;;;;;5150989;27;20388;-50
2023/07/14 10:38:23;;;;;;;0.10;0.10;;;;;;;;;;5151419;27;20060;-50
2023/07/14 10:40:55;;;;;;;0.10;0.10;;;;;;;;;;5150266;27;20058;-50
2023/07/14 10:43:23;;;;;;;0.10;0.10;;;;;;;;;;5151179;27;20407;-49
2023/07/14 10:45:50;;;;;;;0.10;0.10;;;;;;;;;;5150337;27;20050;-50
2023/07/14 10:48:17;;;;;;;0.10;0.10;;;;;;;;;;5151386;27;20080;-50
2023/07/14 10:50:51;;;;;;;0.10;0.10;;;;;;;;;;5151223;27;20107;-50
2023/07/14 10:53:18;;;;;;;0.10;0.10;;;;;;;;;;5151313;27;20051;-50
2023/07/14 10:55:46;;;;;;;0.10;0.10;;;;;;;;;;5150930;27;20057;-49
2023/07/14 10:58:31;;;;;;;0.10;0.10;;;;;;;;;;5150866;27;20549;-50
2023/07/14 11:01:00;;;;;;;0.10;0.10;;;;;;;;;;5136370;27;20050;-50
2023/07/14 11:03:28;;;;;;;0.10;0.10;;;;;;;;;;5151227;27;20050;-50
2023/07/14 11:05:58;;;;;;;0.10;0.10;;;;;;;;;;5150906;27;20061;-50
2023/07/14 11:08:25;;;;;;;0.10;0.10;;;;;;;;;;5150484;27;20431;-50
2023/07/14 11:10:56;;;;;;;0.10;0.10;;;;;;;;;;5150454;27;20066;-50
2023/07/14 11:13:28;;;;;;;0.10;0.10;;;;;;;;;;5150700;27;20047;-50
2023/07/14 11:15:56;;;;;;;0.10;0.10;;;;;;;;;;5150228;27;20047;-50
2023/07/14 11:18:29;;;;;;;0.10;0.10;;;;;;;;;;5150563;27;20058;-47
2023/07/14 11:21:02;;;;;;;0.10;0.10;;;;;;;;;;5150714;27;20170;-49
2023/07/14 11:23:36;;;;;;;0.10;0.10;;;;;;;;;;5150882;27;20038;-48
2023/07/14 11:26:10;;;;;;;0.10;0.10;;;;;;;;;;5150405;27;20429;-49
2023/07/14 11:28:38;;;;;;;0.10;0.10;;;;;;;;;;5150893;27;20051;-49
2023/07/14 11:31:14;;;;;;;0.10;0.10;;;;;;;;;;5150461;27;20491;-49
2023/07/14 11:33:45;;;;;;;0.10;0.10;;;;;;;;;;5149930;27;20110;-48
2023/07/14 11:36:15;;;;;;;0.10;0.10;;;;;;;;;;5150081;27;20519;-46
2023/07/14 11:38:46;;;;;;;0.10;0.10;;;;;;;;;;5130123;28;20104;-49
2023/07/14 11:41:13;;;;;;;0.10;0.10;;;;;;;;;;5143082;27;20063;-50
2023/07/14 11:43:40;;;;;;;0.10;0.10;;;;;;;;;;5149670;27;20047;-49
2023/07/14 11:46:08;;;;;;;0.10;0.10;;;;;;;;;;5149065;27;20296;-49
2023/07/14 11:48:36;;;;;;;0.10;0.10;;;;;;;;;;5150491;27;20196;-47
2023/07/14 11:51:02;;;;;;;;;;;;;;;;;;5151017;27;20137;-48
2023/07/14 11:53:31;;;;;;;0.10;0.10;;;;;;;;;;5150785;27;19972;-46
2023/07/14 11:56:10;;;;;;;0.10;0.10;;;;;;;;;;5149875;27;20054;-47
2023/07/14 11:58:36;;;;;;;0.10;0.10;;;;;;;;;;5148853;27;20047;-49
2023/07/14 12:01:03;;;;;;;0.10;0.10;;;;;;;;;;5144048;27;20403;-50
2023/07/14 12:03:33;;;;;;;0.10;0.10;;;;;;;;;;5150101;27;20085;-50
2023/07/14 12:06:21;;;;;;;0.10;0.10;;;;;;;;;;5150132;27;20050;-50
2023/07/14 12:11:42;;;;;;;0.10;0.10;;;;;;;;;;5187714;27;20196;-47
2023/07/14 12:14:29;;;;;;;0.10;0.10;;;;;;;;;;5166901;27;20074;-49
2023/07/14 12:16:55;;;;;;;0.10;0.10;;;;;;;;;;5150935;27;20158;-50
2023/07/14 12:22:02;;;;;;;0.10;0.10;;;;;;;;;;5187020;27;20453;-48
2023/07/14 12:24:30;;;;;;;0.10;0.10;;;;;;;;;;5148386;27;20043;-50
2023/07/14 12:27:07;;;;;;;0.10;0.10;;;;;;;;;;5166767;27;20050;-48
2023/07/14 12:29:33;;;;;;;0.10;0.10;;;;;;;;;;5166772;27;20058;-50
2023/07/14 12:32:18;;;;;;;0.10;0.10;;;;;;;;;;5166789;27;20454;-49
2023/07/14 12:34:44;;;;;;;0.10;0.10;;;;;;;;;;5163511;27;20100;-49
2023/07/14 12:37:18;;;;;;;0.10;0.10;;;;;;;;;;5145427;27;20051;-50
2023/07/14 12:39:45;;;;;;;0.10;0.10;;;;;;;;;;5145552;27;20095;-48
2023/07/14 12:42:10;;;;;;;0.10;0.10;;;;;;;;;;5166879;27;20427;-49
2023/07/14 12:44:36;;;;;;;0.10;0.10;;;;;;;;;;5166728;27;20042;-49
2023/07/14 12:47:02;;;;;;;0.10;0.10;;;;;;;;;;5166058;27;20046;-49
2023/07/14 12:49:37;;;;;;;0.10;0.10;;;;;;;;;;5148059;27;20131;-50
2023/07/14 12:52:04;;;;;;;0.10;0.10;;;;;;;;;;5166198;27;20054;-49
2023/07/14 12:54:29;;;;;;;0.10;0.10;;;;;;;;;;5166333;27;20482;-50
2023/07/14 12:56:58;;;;;;;0.10;0.10;;;;;;;;;;5159457;27;20156;-49
2023/07/14 12:59:23;;;;;;;0.10;0.10;;;;;;;;;;5128651;27;20051;-49
2023/07/14 13:01:50;;;;;;;0.10;0.10;;;;;;;;;;5150580;27;20054;-50
2023/07/14 13:04:16;;;;;;;0.10;0.10;;;;;;;;;;5131405;27;20077;-48
2023/07/14 13:06:42;;;;;;;0.10;0.10;;;;;;;;;;5124771;28;20222;-48
2023/07/14 13:09:10;;;;;;;0.10;0.10;;;;;;;;;;5124787;28;20112;-49
2023/07/14 13:11:37;;;;;;;0.10;0.10;;;;;;;;;;5141236;27;20043;-49
2023/07/14 13:14:03;;;;;;;0.10;0.10;;;;;;;;;;5145865;27;20051;-50
2023/07/14 13:16:31;;;;;;;0.10;0.10;;;;;;;;;;5144818;27;20089;-49
2023/07/14 13:18:59;;;;;;;0.10;0.10;;;;;;;;;;5145088;27;20074;-48
2023/07/14 13:21:29;;;;;;;0.10;0.10;;;;;;;;;;5145214;27;20046;-50
2023/07/14 13:23:55;;;;;;;0.10;0.10;;;;;;;;;;5144420;27;20286;-49
2023/07/14 13:26:21;;;;;;;0.10;0.10;;;;;;;;;;5144389;27;20047;-50
2023/07/14 13:28:55;;;;;;;0.10;0.10;;;;;;;;;;5145079;27;20073;-49
2023/07/14 13:31:24;;;;;;;0.10;0.10;;;;;;;;;;5142099;27;20072;-50
2023/07/14 13:33:50;;;;;;;0.10;0.10;;;;;;;;;;5131171;28;20086;-50
2023/07/14 13:36:24;;;;;;;0.10;0.10;;;;;;;;;;5130006;28;20407;-50
2023/07/14 13:38:50;;;;;;;0.10;0.10;;;;;;;;;;5110086;28;20479;-49
2023/07/14 13:41:17;;;;;;;0.10;0.10;;;;;;;;;;5109952;28;20070;-49
2023/07/14 13:43:44;;;;;;;0.10;0.10;;;;;;;;;;5110250;28;20051;-49
2023/07/14 13:46:12;;;;;;;0.10;0.10;;;;;;;;;;5109806;28;20071;-49
2023/07/14 13:48:39;;;;;;;0.10;0.10;;;;;;;;;;5110256;28;20048;-50
2023/07/14 13:51:12;;;;;;;0.10;0.10;;;;;;;;;;5110889;28;20047;-49
2023/07/14 13:53:38;;;;;;;0.10;0.10;;;;;;;;;;5110328;28;20048;-49
2023/07/14 13:56:03;;;;;;;0.10;0.10;;;;;;;;;;5109492;28;20059;-49
2023/07/14 13:58:29;;;;;;;0.10;0.10;;;;;;;;;;5105154;28;20276;-49
2023/07/14 14:00:54;;;;;;;0.10;0.10;;;;;;;;;;5121219;27;20047;-49
2023/07/14 14:03:22;;;;;;;0.20;0.20;;;;;;;;;;5130327;28;20077;-48
2023/07/14 14:05:48;;;;;;;0.10;0.10;;;;;;;;;;5118462;28;20557;-49
2023/07/14 14:08:15;;;;;;;0.10;0.10;;;;;;;;;;5109687;28;20048;-49
2023/07/14 14:10:41;;;;;;;0.10;0.10;;;;;;;;;;5117792;28;20548;-50
2023/07/14 14:13:07;;;;;;;0.10;0.10;;;;;;;;;;5130316;28;20050;-49
2023/07/14 14:15:34;;;;;;;0.10;0.10;;;;;;;;;;5129868;28;20043;-49
2023/07/14 14:18:05;;;;;;;0.10;0.10;;;;;;;;;;5129997;28;20063;-50
2023/07/14 14:20:31;;;;;;;0.10;0.10;;;;;;;;;;5129842;28;20303;-49
2023/07/14 14:22:58;;;;;;;0.10;0.10;;;;;;;;;;5130395;28;20058;-50
2023/07/14 14:25:25;;;;;;;0.10;0.10;;;;;;;;;;5129942;28;20040;-48
2023/07/14 14:27:51;;;;;;;0.10;0.10;;;;;;;;;;5130093;28;20403;-49
2023/07/14 14:30:17;;;;;;;0.10;0.10;;;;;;;;;;5129149;28;20050;-50
2023/07/14 14:32:44;;;;;;;0.10;0.10;;;;;;;;;;5129824;28;20043;-50
2023/07/14 14:35:26;;;;;;;0.10;0.10;;;;;;;;;;5129989;28;20051;-49
2023/07/14 14:37:55;;;;;;;0.10;0.10;;;;;;;;;;5129567;28;20043;-52
2023/07/14 14:40:21;;;;;;;0.10;0.10;;;;;;;;;;5114259;28;20051;-49
2023/07/14 14:42:47;;;;;;;0.10;0.10;;;;;;;;;;5109992;28;20052;-50
2023/07/14 14:45:21;;;;;;;0.10;0.10;;;;;;;;;;5107861;28;20053;-49
2023/07/14 14:47:47;;;;;;;0.10;0.10;;;;;;;;;;5109122;28;20071;-49
2023/07/14 14:50:13;;;;;;;0.10;0.10;;;;;;;;;;5113604;28;20055;-50
2023/07/14 14:52:38;;;;;;;0.10;0.10;;;;;;;;;;5116007;28;20094;-49
2023/07/14 14:55:04;;;;;;;0.10;0.10;;;;;;;;;;5109542;28;20411;-49
2023/07/14 14:57:30;;;;;;;0.10;0.10;;;;;;;;;;5100081;28;20425;-50